Time;durP1;ratioP1;P1;durP2;ratioP2;P2;SDS_P1;SDS_P2;PMS_P1;PMS_P2;Temp;Humidity;BMP_temperature;BMP_pressure;BME280_temperature;BME280_humidity;BME280_pressure;Samples;Min_cycle;Max_cycle;Signal;HPM_P1;HPM_P2
2022/07/12 00:00:02;;;;;;;2.53;2.23;;;15.90;99.90;;;;;;4915816;29;20198;-76
2022/07/12 00:02:46;;;;;;;2.00;1.90;;;15.90;99.90;;;;;;4917043;29;20334;-76
2022/07/12 00:05:30;;;;;;;2.50;2.30;;;15.90;99.90;;;;;;4910568;29;20262;-76
2022/07/12 00:08:14;;;;;;;2.60;2.20;;;15.90;99.90;;;;;;4918759;29;20206;-76
2022/07/12 00:10:59;;;;;;;2.90;2.60;;;15.90;99.90;;;;;;4915933;29;20194;-75
2022/07/12 00:13:43;;;;;;;2.97;2.70;;;15.90;99.90;;;;;;4918623;29;20249;-76
2022/07/12 00:16:27;;;;;;;2.73;2.53;;;15.80;99.90;;;;;;4917846;29;20214;-76
2022/07/12 00:19:11;;;;;;;2.90;2.57;;;15.80;99.90;;;;;;4930160;29;20190;-75
2022/07/12 00:21:55;;;;;;;3.03;2.50;;;15.80;99.90;;;;;;4930048;29;20329;-75
2022/07/12 00:24:40;;;;;;;4.03;2.50;;;15.70;99.90;;;;;;4905400;29;20230;-75
2022/07/12 00:27:24;;;;;;;3.33;2.73;;;15.70;99.90;;;;;;4836557;29;20217;-75
2022/07/12 00:30:09;;;;;;;2.77;2.17;;;15.70;99.90;;;;;;4849794;29;20245;-76
2022/07/12 00:32:53;;;;;;;2.33;2.17;;;15.70;99.90;;;;;;4851429;29;20194;-76
2022/07/12 00:35:37;;;;;;;3.40;2.60;;;15.70;99.90;;;;;;4882830;28;20237;-76
2022/07/12 00:38:21;;;;;;;2.60;2.40;;;15.60;99.90;;;;;;4867028;29;20611;-76
2022/07/12 00:41:05;;;;;;;3.23;2.93;;;15.60;99.90;;;;;;4871473;29;20197;-76
2022/07/12 00:43:50;;;;;;;3.17;2.87;;;15.60;99.90;;;;;;4883463;29;20206;-75
2022/07/12 00:46:34;;;;;;;2.97;2.77;;;15.60;99.90;;;;;;4842126;29;20194;-76
2022/07/12 00:49:18;;;;;;;3.00;2.80;;;15.70;99.90;;;;;;4873712;29;20186;-76
2022/07/12 00:52:03;;;;;;;2.90;2.70;;;15.70;99.90;;;;;;4859658;29;20724;-75
2022/07/12 00:54:47;;;;;;;5.37;3.10;;;15.70;99.90;;;;;;4844783;29;20221;-76
2022/07/12 00:57:33;;;;;;;2.73;2.53;;;15.70;99.90;;;;;;4847228;29;20206;-76
2022/07/12 01:00:23;;;;;;;3.13;2.80;;;15.70;99.90;;;;;;4861138;29;20233;-76
2022/07/12 01:03:07;;;;;;;2.87;2.67;;;15.70;99.90;;;;;;4870157;29;20198;-76
2022/07/12 01:05:52;;;;;;;3.63;2.83;;;15.70;99.90;;;;;;4854133;29;20313;-75
2022/07/12 01:08:37;;;;;;;2.87;2.57;;;15.70;99.90;;;;;;4850501;29;20269;-76
2022/07/12 01:11:21;;;;;;;7.00;3.40;;;15.70;99.90;;;;;;4854171;29;20600;-76
2022/07/12 01:14:06;;;;;;;3.73;2.80;;;15.80;99.90;;;;;;4847544;29;20274;-76
2022/07/12 01:16:51;;;;;;;6.40;2.83;;;15.80;99.90;;;;;;4873350;29;20197;-76
2022/07/12 01:19:37;;;;;;;4.60;2.97;;;15.70;99.90;;;;;;4863938;29;20190;-75
2022/07/12 01:22:27;;;;;;;3.57;2.73;;;15.80;99.90;;;;;;4854398;29;20209;-76
2022/07/12 01:25:11;;;;;;;3.03;2.83;;;15.70;99.90;;;;;;4850402;29;20237;-76
2022/07/12 01:27:56;;;;;;;6.10;2.70;;;15.80;99.90;;;;;;4862571;29;20273;-75
2022/07/12 01:30:41;;;;;;;3.30;3.00;;;15.80;99.90;;;;;;4878891;29;20563;-76
2022/07/12 01:33:26;;;;;;;2.63;2.20;;;15.80;99.90;;;;;;4859255;29;20181;-76
2022/07/12 01:36:11;;;;;;;3.00;2.70;;;15.70;99.90;;;;;;4872947;29;20339;-76
2022/07/12 01:38:55;;;;;;;3.13;2.90;;;15.60;99.90;;;;;;4852736;29;20265;-76
2022/07/12 01:41:40;;;;;;;2.90;2.57;;;15.50;99.90;;;;;;4862116;29;20217;-76
2022/07/12 01:44:24;;;;;;;3.17;2.83;;;15.50;99.90;;;;;;4862703;28;20608;-76
2022/07/12 01:47:08;;;;;;;3.93;2.83;;;15.40;99.90;;;;;;4861643;29;20588;-75
2022/07/12 01:49:52;;;;;;;4.13;3.20;;;15.40;99.90;;;;;;4864768;29;20603;-76
2022/07/12 01:52:39;;;;;;;3.73;3.03;;;15.40;99.90;;;;;;4863594;29;20193;-76
2022/07/12 01:55:24;;;;;;;3.03;2.83;;;15.30;99.90;;;;;;4843111;29;20318;-76
2022/07/12 01:58:10;;;;;;;4.40;2.93;;;15.20;99.90;;;;;;4839436;29;20201;-76
2022/07/12 02:00:55;;;;;;;3.73;2.73;;;15.20;99.90;;;;;;4900185;29;20193;-76
2022/07/12 02:03:38;;;;;;;4.77;2.93;;;15.10;99.90;;;;;;4846063;29;20222;-76
2022/07/12 02:06:24;;;;;;;3.57;2.83;;;15.00;99.90;;;;;;4877146;29;20258;-75
2022/07/12 02:09:08;;;;;;;4.63;2.83;;;15.00;99.90;;;;;;4872764;29;20213;-76
2022/07/12 02:11:53;;;;;;;3.13;2.50;;;14.90;99.90;;;;;;4865640;29;20198;-75
2022/07/12 02:14:36;;;;;;;2.70;2.50;;;14.90;99.90;;;;;;4866122;29;20300;-75
2022/07/12 02:17:20;;;;;;;6.30;3.10;;;14.80;99.90;;;;;;4848477;29;20197;-76
2022/07/12 02:20:05;;;;;;;5.30;2.90;;;14.80;99.90;;;;;;4864011;29;20221;-76
2022/07/12 02:22:50;;;;;;;4.00;2.93;;;14.70;99.90;;;;;;4869007;29;20285;-76
2022/07/12 02:25:34;;;;;;;5.47;2.77;;;14.60;99.90;;;;;;4842207;29;20776;-76
2022/07/12 02:28:18;;;;;;;3.63;3.13;;;14.60;99.90;;;;;;4889824;29;20609;-76
2022/07/12 02:31:02;;;;;;;4.87;3.10;;;14.60;99.90;;;;;;4853604;29;20197;-76
2022/07/12 02:33:46;;;;;;;5.03;3.10;;;14.60;99.90;;;;;;4863633;29;20189;-76
2022/07/12 02:36:30;;;;;;;3.60;3.20;;;14.60;99.90;;;;;;4851049;29;20771;-76
2022/07/12 02:39:15;;;;;;;2.70;2.50;;;14.50;99.90;;;;;;4872790;29;20319;-76
2022/07/12 02:41:59;;;;;;;4.97;2.90;;;14.50;99.90;;;;;;4866514;29;20241;-76
2022/07/12 02:44:46;;;;;;;5.93;3.33;;;14.50;99.90;;;;;;4856149;29;20257;-76
2022/07/12 02:47:30;;;;;;;3.37;3.07;;;14.50;99.90;;;;;;4862841;29;20214;-76
2022/07/12 02:50:14;;;;;;;5.87;3.20;;;14.40;99.90;;;;;;4856844;29;20186;-75
2022/07/12 02:52:58;;;;;;;5.00;3.00;;;14.40;99.90;;;;;;4850130;29;20253;-76
2022/07/12 02:55:42;;;;;;;3.50;3.20;;;14.40;99.90;;;;;;4877055;29;20725;-76
2022/07/12 02:58:27;;;;;;;5.20;3.57;;;14.40;99.90;;;;;;4851101;29;20237;-76
2022/07/12 03:01:12;;;;;;;3.20;3.00;;;14.40;99.90;;;;;;4844654;29;20197;-76
2022/07/12 03:03:57;;;;;;;3.63;3.10;;;14.40;99.90;;;;;;4848654;29;20206;-76
2022/07/12 03:06:41;;;;;;;5.63;3.47;;;14.40;99.90;;;;;;4846775;29;20221;-75
2022/07/12 03:09:25;;;;;;;5.60;3.10;;;14.40;99.90;;;;;;4848196;29;20237;-75
2022/07/12 03:12:10;;;;;;;3.60;3.30;;;14.40;99.90;;;;;;4869865;29;20190;-76
2022/07/12 03:14:54;;;;;;;4.60;3.60;;;14.40;99.90;;;;;;4864979;29;20615;-79
2022/07/12 03:17:38;;;;;;;4.27;3.70;;;14.40;99.90;;;;;;4872220;29;20718;-78
2022/07/12 03:20:23;;;;;;;3.40;3.20;;;14.40;99.90;;;;;;4841473;29;20211;-79
2022/07/12 03:23:07;;;;;;;4.37;3.23;;;14.40;99.90;;;;;;4879695;29;20201;-78
2022/07/12 03:25:51;;;;;;;3.60;3.30;;;14.40;99.90;;;;;;4866089;29;20318;-79
2022/07/12 03:28:35;;;;;;;4.33;3.70;;;14.50;99.90;;;;;;4842089;29;20218;-79
2022/07/12 03:31:19;;;;;;;8.00;3.67;;;14.50;99.90;;;;;;4854882;29;20313;-79
2022/07/12 03:34:03;;;;;;;4.17;3.77;;;14.50;99.90;;;;;;4869007;29;20713;-79
2022/07/12 03:36:48;;;;;;;3.60;3.30;;;14.50;99.90;;;;;;4853801;29;20190;-79
2022/07/12 03:39:32;;;;;;;4.60;3.40;;;14.50;99.90;;;;;;4861009;29;20217;-79
2022/07/12 03:42:16;;;;;;;4.60;3.90;;;14.50;99.90;;;;;;4892660;29;20609;-79
2022/07/12 03:45:01;;;;;;;4.30;3.70;;;14.60;99.90;;;;;;4868578;29;20221;-78
2022/07/12 03:47:45;;;;;;;4.17;3.77;;;14.60;99.90;;;;;;4840047;29;20261;-79
2022/07/12 03:50:29;;;;;;;4.00;3.60;;;14.60;99.90;;;;;;4842688;29;20249;-79
2022/07/12 03:53:13;;;;;;;5.63;3.70;;;14.60;99.90;;;;;;4841826;29;20554;-79
2022/07/12 03:55:57;;;;;;;4.63;4.10;;;14.60;99.90;;;;;;4868528;29;20296;-79
2022/07/12 03:58:42;;;;;;;5.07;4.27;;;14.60;99.90;;;;;;4858267;29;20240;-79
2022/07/12 04:01:26;;;;;;;5.80;4.13;;;14.70;99.90;;;;;;4854862;29;20252;-79
2022/07/12 04:04:10;;;;;;;6.17;3.97;;;14.70;99.90;;;;;;4869071;29;20256;-79
2022/07/12 04:06:54;;;;;;;6.30;4.50;;;14.80;99.90;;;;;;4865417;29;20208;-78
2022/07/12 04:09:38;;;;;;;5.40;4.50;;;14.80;99.90;;;;;;4841784;29;20197;-76
2022/07/12 04:12:23;;;;;;;4.63;4.23;;;14.80;99.90;;;;;;4879250;29;20189;-76
2022/07/12 04:15:08;;;;;;;5.60;4.57;;;14.80;99.90;;;;;;4865277;29;20232;-76
2022/07/12 04:17:52;;;;;;;5.13;4.60;;;14.90;99.90;;;;;;4845626;29;20249;-76
2022/07/12 04:20:36;;;;;;;6.13;5.53;;;14.80;99.90;;;;;;4862575;29;20213;-76
2022/07/12 04:23:20;;;;;;;6.50;4.93;;;14.90;99.90;;;;;;4856459;29;20193;-76
2022/07/12 04:26:04;;;;;;;6.40;5.80;;;14.90;99.90;;;;;;4856937;29;20723;-77
2022/07/12 04:28:48;;;;;;;6.30;5.23;;;15.00;99.90;;;;;;4851494;29;20246;-78
2022/07/12 04:31:32;;;;;;;6.93;5.27;;;15.00;99.90;;;;;;4851262;29;20198;-75
2022/07/12 04:34:17;;;;;;;5.97;5.37;;;15.00;99.90;;;;;;4867728;29;20189;-76
2022/07/12 04:37:01;;;;;;;6.03;5.43;;;15.10;99.90;;;;;;4855983;29;20216;-76
2022/07/12 04:39:45;;;;;;;6.80;5.80;;;15.10;99.90;;;;;;4852316;29;20265;-77
2022/07/12 04:42:29;;;;;;;9.43;5.53;;;15.20;99.90;;;;;;4846905;29;20198;-77
2022/07/12 04:45:13;;;;;;;8.17;6.90;;;15.20;99.90;;;;;;4860052;29;20291;-77
2022/07/12 04:47:58;;;;;;;8.37;7.37;;;15.20;99.90;;;;;;4864780;29;20830;-77
2022/07/12 04:50:42;;;;;;;8.60;6.87;;;15.30;99.90;;;;;;4852338;29;20225;-77
2022/07/12 04:53:28;;;;;;;7.63;6.83;;;15.30;99.90;;;;;;4871662;29;20229;-76
2022/07/12 04:56:11;;;;;;;9.10;7.33;;;15.40;99.90;;;;;;4857581;29;20277;-78
2022/07/12 04:58:56;;;;;;;8.13;7.33;;;15.40;99.90;;;;;;4861033;29;20189;-77
2022/07/12 05:01:40;;;;;;;8.33;7.53;;;15.50;99.90;;;;;;4848094;29;20205;-77
2022/07/12 05:04:25;;;;;;;7.80;7.10;;;15.50;99.90;;;;;;4868276;29;20229;-78
2022/07/12 05:07:09;;;;;;;9.03;8.13;;;15.50;99.90;;;;;;4868692;29;20280;-75
2022/07/12 05:09:53;;;;;;;9.83;7.57;;;15.60;99.90;;;;;;4861886;29;20234;-76
2022/07/12 05:12:38;;;;;;;9.47;8.10;;;15.60;99.90;;;;;;4845514;29;20258;-75
2022/07/12 05:15:22;;;;;;;9.77;8.10;;;15.70;99.90;;;;;;4855950;29;20220;-76
2022/07/12 05:18:06;;;;;;;9.07;7.83;;;15.70;99.90;;;;;;4863777;29;20213;-76
2022/07/12 05:20:50;;;;;;;7.47;6.77;;;15.80;99.90;;;;;;4844511;29;20246;-76
2022/07/12 05:23:34;;;;;;;7.87;7.00;;;15.80;99.90;;;;;;4866338;29;20201;-77
2022/07/12 05:26:18;;;;;;;8.97;6.97;;;15.90;99.90;;;;;;4835844;29;20233;-76
2022/07/12 05:29:03;;;;;;;7.07;6.37;;;15.90;99.90;;;;;;4863670;29;20217;-75
2022/07/12 05:31:47;;;;;;;6.00;5.50;;;15.90;99.90;;;;;;4841293;29;20233;-75
2022/07/12 05:34:31;;;;;;;5.87;5.37;;;16.00;99.90;;;;;;4853376;29;20217;-76
2022/07/12 05:37:15;;;;;;;6.50;5.60;;;16.00;99.90;;;;;;4862104;29;20265;-77
2022/07/12 05:40:00;;;;;;;7.37;5.70;;;16.10;99.90;;;;;;4856193;29;20317;-76
2022/07/12 05:42:43;;;;;;;6.47;5.00;;;16.20;99.90;;;;;;4865332;29;20224;-76
2022/07/12 05:45:28;;;;;;;5.93;5.43;;;16.20;99.90;;;;;;4849766;29;20224;-75
2022/07/12 05:48:12;;;;;;;5.30;4.90;;;16.30;99.90;;;;;;4843972;29;20242;-77
2022/07/12 05:53:21;;;;;;;4.80;4.40;;;16.40;99.90;;;;;;4861895;29;20242;-77
2022/07/12 05:54:04;;;;;;;5.73;5.23;;;16.40;99.90;;;;;;4866064;29;20217;-76
2022/07/12 05:56:50;;;;;;;4.90;4.50;;;16.40;99.90;;;;;;4878638;29;20212;-77
2022/07/12 05:59:35;;;;;;;7.53;5.00;;;16.50;99.90;;;;;;4860519;29;20233;-77
2022/07/12 06:02:19;;;;;;;4.97;4.57;;;16.50;99.90;;;;;;4836095;29;20194;-77
2022/07/12 06:05:04;;;;;;;4.87;4.47;;;16.50;99.90;;;;;;4866974;29;20277;-77
2022/07/12 06:07:48;;;;;;;4.87;4.50;;;16.60;99.90;;;;;;4884636;29;20226;-77
2022/07/12 06:10:33;;;;;;;5.50;5.00;;;16.60;99.90;;;;;;4862492;29;20661;-77
2022/07/12 06:13:17;;;;;;;4.63;4.23;;;16.70;99.90;;;;;;4858204;29;20308;-77
2022/07/12 06:16:05;;;;;;;6.93;5.10;;;16.80;99.90;;;;;;4866736;29;20364;-77
2022/07/12 06:18:49;;;;;;;4.67;4.27;;;16.80;99.90;;;;;;4888063;29;20598;-77
2022/07/12 06:21:34;;;;;;;4.60;4.20;;;16.90;99.90;;;;;;4868389;29;20205;-77
2022/07/12 06:24:18;;;;;;;5.70;4.70;;;16.90;99.90;;;;;;4879235;29;20713;-77
2022/07/12 06:27:02;;;;;;;6.47;4.93;;;16.90;99.90;;;;;;4899137;29;20673;-77
2022/07/12 06:29:47;;;;;;;5.67;4.33;;;17.00;99.90;;;;;;4874471;29;20649;-77
2022/07/12 06:32:33;;;;;;;4.37;3.97;;;17.00;99.90;;;;;;4859075;29;20208;-78
2022/07/12 06:35:17;;;;;;;5.63;4.40;;;17.10;99.90;;;;;;4846500;29;20263;-77
2022/07/12 06:38:01;;;;;;;4.47;4.17;;;17.20;99.90;;;;;;4874920;29;20275;-77
2022/07/12 06:40:47;;;;;;;5.43;4.93;;;17.30;99.90;;;;;;4839276;29;20257;-77
2022/07/12 06:43:31;;;;;;;4.90;4.50;;;17.30;99.90;;;;;;4850925;29;20190;-77
2022/07/12 06:46:15;;;;;;;5.13;4.63;;;17.40;99.90;;;;;;4875905;29;20794;-77
2022/07/12 06:48:59;;;;;;;5.00;4.60;;;17.40;99.90;;;;;;4838534;29;20689;-77
2022/07/12 06:51:43;;;;;;;5.73;5.20;;;17.50;99.90;;;;;;4866831;29;20194;-77
2022/07/12 06:54:27;;;;;;;4.87;4.37;;;17.60;99.90;;;;;;4848110;29;20287;-77
2022/07/12 06:57:11;;;;;;;5.97;5.47;;;17.70;99.90;;;;;;4858324;29;20186;-78
2022/07/12 06:59:56;;;;;;;8.37;5.73;;;17.70;99.90;;;;;;4853428;29;20190;-77
2022/07/12 07:02:40;;;;;;;7.30;6.60;;;17.80;99.90;;;;;;4859000;29;20546;-77
2022/07/12 07:05:25;;;;;;;9.03;7.27;;;17.80;99.90;;;;;;4832315;29;20347;-77
2022/07/12 07:08:09;;;;;;;8.67;7.40;;;17.90;99.90;;;;;;4888828;29;20209;-77
2022/07/12 07:10:53;;;;;;;11.23;8.20;;;18.00;99.90;;;;;;4854867;29;20726;-77
2022/07/12 07:13:37;;;;;;;9.43;8.27;;;18.10;99.90;;;;;;4865481;29;20241;-78
2022/07/12 07:16:23;;;;;;;10.60;8.60;;;18.10;99.90;;;;;;4871842;29;20278;-77
2022/07/12 07:19:08;;;;;;;11.30;7.83;;;18.10;99.90;;;;;;4839499;29;20583;-78
2022/07/12 07:21:55;;;;;;;8.97;8.03;;;18.10;99.90;;;;;;4902450;29;20311;-77
2022/07/12 07:24:39;;;;;;;10.97;9.10;;;18.20;99.90;;;;;;4842580;29;20221;-78
2022/07/12 07:27:24;;;;;;;9.70;8.52;;;18.30;99.90;;;;;;4842514;29;20225;-78
2022/07/12 07:33:12;;;;;;;9.25;7.47;;;18.50;99.90;;;;;;4896329;29;20273;-77
2022/07/12 07:35:56;;;;;;;9.38;7.93;;;18.60;99.90;;;;;;4888623;29;20217;-77
2022/07/12 07:38:40;;;;;;;8.77;7.88;;;18.70;99.90;;;;;;4908956;29;20189;-77
2022/07/12 07:41:24;;;;;;;8.90;8.00;;;18.80;99.90;;;;;;4836543;29;20209;-78
2022/07/12 07:44:09;;;;;;;9.38;7.68;;;18.90;99.90;;;;;;4855562;29;20194;-78
2022/07/12 07:46:53;;;;;;;8.68;7.55;;;18.90;99.90;;;;;;4880013;29;20215;-77
2022/07/12 07:49:37;;;;;;;8.18;7.38;;;18.90;99.90;;;;;;4853001;29;20190;-78
2022/07/12 07:52:21;;;;;;;8.25;7.22;;;19.00;99.90;;;;;;4866903;29;20230;-77
2022/07/12 07:55:06;;;;;;;9.50;7.72;;;19.10;99.90;;;;;;4864219;29;20216;-78
2022/07/12 07:57:50;;;;;;;8.68;7.72;;;19.20;99.90;;;;;;4840221;29;20225;-77
2022/07/12 08:00:34;;;;;;;8.30;7.50;;;19.30;99.90;;;;;;4876586;29;20193;-77
2022/07/12 08:03:19;;;;;;;9.25;7.50;;;19.30;99.90;;;;;;4881194;29;20185;-77
2022/07/12 08:06:04;;;;;;;8.43;7.63;;;19.40;99.90;;;;;;4857378;29;20234;-77
2022/07/12 08:08:48;;;;;;;7.25;6.55;;;19.40;99.90;;;;;;4851421;29;20240;-77
2022/07/12 08:11:33;;;;;;;8.65;7.30;;;19.50;99.90;;;;;;4853519;29;20192;-77
2022/07/12 08:14:17;;;;;;;8.40;7.60;;;19.60;99.90;;;;;;4876197;29;20209;-77
2022/07/12 08:17:01;;;;;;;8.43;7.65;;;19.70;99.90;;;;;;4865131;29;20566;-77
2022/07/12 08:19:46;;;;;;;8.70;6.93;;;19.70;99.90;;;;;;4838138;29;20197;-77
2022/07/12 08:22:30;;;;;;;7.78;7.07;;;19.80;99.90;;;;;;4884695;29;20245;-77
2022/07/12 08:25:15;;;;;;;6.97;6.35;;;19.90;99.90;;;;;;4853559;29;20233;-77
2022/07/12 08:27:59;;;;;;;8.13;6.32;;;20.00;99.90;;;;;;4840673;29;20232;-77
2022/07/12 08:30:43;;;;;;;7.03;6.38;;;20.10;99.90;;;;;;4846214;29;20672;-77
2022/07/12 08:33:29;;;;;;;8.35;6.72;;;20.10;99.90;;;;;;4839963;29;20205;-77
2022/07/12 08:36:13;;;;;;;9.95;7.07;;;20.10;99.90;;;;;;4890554;29;20225;-77
2022/07/12 08:38:57;;;;;;;6.90;6.18;;;20.10;99.90;;;;;;4867512;29;20245;-77
2022/07/12 08:41:41;;;;;;;9.27;6.95;;;20.10;99.90;;;;;;4841283;29;20261;-77
2022/07/12 08:44:25;;;;;;;6.97;6.25;;;20.20;99.90;;;;;;4848353;29;20209;-76
2022/07/12 08:47:10;;;;;;;6.90;6.30;;;20.30;99.90;;;;;;4848381;29;20598;-77
2022/07/12 08:50:22;;;;;;;8.40;6.32;;;20.30;99.90;;;;;;4861122;29;20204;-77
2022/07/12 08:53:10;;;;;;;9.00;6.93;;;20.40;99.90;;;;;;4876507;29;20198;-77
2022/07/12 08:55:54;;;;;;;6.50;5.93;;;20.50;99.90;;;;;;4873887;29;20220;-77
2022/07/12 08:58:39;;;;;;;7.93;7.22;;;20.60;99.90;;;;;;4869323;29;20257;-77
2022/07/12 09:01:42;;;;;;;6.68;6.10;;;20.70;99.90;;;;;;4844564;29;20257;-77
2022/07/12 09:04:27;;;;;;;10.10;6.25;;;20.80;99.90;;;;;;4891196;28;20214;-77
2022/07/12 09:07:15;;;;;;;6.03;5.45;;;20.90;99.90;;;;;;4867488;29;20274;-77
2022/07/12 09:10:04;;;;;;;6.63;6.03;;;21.00;99.90;;;;;;4857541;29;20703;-77
2022/07/12 09:12:49;;;;;;;5.93;5.43;;;21.00;99.90;;;;;;4851355;29;20202;-77
2022/07/12 09:15:33;;;;;;;6.32;5.10;;;21.00;99.90;;;;;;4876095;29;20221;-77
2022/07/12 09:18:18;;;;;;;5.85;5.22;;;21.00;99.90;;;;;;4865050;29;20245;-77
2022/07/12 09:21:02;;;;;;;4.82;4.43;;;21.10;99.90;;;;;;4856629;29;20623;-77
2022/07/12 09:23:55;;;;;;;4.60;4.20;;;21.20;99.90;;;;;;4873322;29;20192;-77
2022/07/12 09:26:39;;;;;;;4.28;3.95;;;21.20;99.90;;;;;;4847165;29;20229;-77
2022/07/12 09:29:25;;;;;;;5.07;4.68;;;21.40;99.90;;;;;;4862839;29;20290;-77
2022/07/12 09:38:15;;;;;;;3.65;3.35;;;21.70;99.90;;;;;;4855944;29;20213;-77
2022/07/12 09:41:00;;;;;;;5.10;4.60;;;21.70;99.90;;;;;;4858435;29;20285;-77
2022/07/12 09:43:45;;;;;;;4.57;4.18;;;21.80;99.90;;;;;;4866771;29;20279;-77
2022/07/12 09:46:31;;;;;;;3.83;3.53;;;21.80;99.90;;;;;;4852414;29;20707;-77
2022/07/12 09:49:17;;;;;;;2.92;2.72;;;21.80;99.90;;;;;;4853756;29;20885;-77
2022/07/12 09:52:03;;;;;;;4.63;2.50;;;21.90;99.90;;;;;;4862451;29;20286;-77
2022/07/12 09:54:50;;;;;;;3.28;2.60;;;21.90;99.90;;;;;;4852878;29;20281;-77
2022/07/12 09:57:39;;;;;;;3.53;2.40;;;22.00;99.90;;;;;;4868652;29;20696;-77
2022/07/12 10:00:23;;;;;;;3.08;2.63;;;22.10;99.90;;;;;;4893516;29;20249;-77
2022/07/12 10:03:08;;;;;;;2.83;2.30;;;22.10;99.90;;;;;;4856877;29;20709;-77
2022/07/12 10:05:53;;;;;;;4.25;2.33;;;22.20;99.90;;;;;;4863299;29;20233;-78
2022/07/12 10:08:37;;;;;;;5.95;2.75;;;22.30;99.90;;;;;;4884514;28;20721;-79
2022/07/12 10:11:25;;;;;;;3.13;2.85;;;22.40;99.90;;;;;;4876821;29;20267;-77
2022/07/12 10:14:12;;;;;;;15.60;2.38;;;22.50;99.90;;;;;;4861411;29;20197;-78
2022/07/12 10:16:57;;;;;;;2.40;2.20;;;22.50;99.90;;;;;;4845746;29;20201;-78
2022/07/12 10:19:41;;;;;;;3.97;2.35;;;22.60;99.90;;;;;;4855300;29;20249;-77
2022/07/12 10:22:26;;;;;;;3.55;2.40;;;22.60;99.90;;;;;;4850669;29;20194;-78
2022/07/12 10:25:25;;;;;;;3.92;2.40;;;22.60;99.90;;;;;;4853898;29;20321;-77
2022/07/12 10:28:10;;;;;;;1.95;1.77;;;22.60;99.90;;;;;;4859417;29;20310;-78
2022/07/12 10:30:54;;;;;;;2.13;2.03;;;22.70;99.90;;;;;;4876756;29;20210;-78
2022/07/12 10:33:38;;;;;;;2.78;2.28;;;22.80;99.90;;;;;;4897053;29;20253;-78
2022/07/12 10:36:23;;;;;;;4.00;2.22;;;22.90;99.90;;;;;;4844529;29;20217;-78
2022/07/12 10:39:12;;;;;;;4.75;2.33;;;22.90;99.90;;;;;;4895887;29;20218;-78
2022/07/12 10:42:05;;;;;;;2.58;2.38;;;22.90;99.90;;;;;;4891123;29;20758;-79
2022/07/12 10:44:50;;;;;;;1.80;1.70;;;23.10;99.90;;;;;;4880812;29;20265;-78
2022/07/12 10:48:00;;;;;;;1.95;1.85;;;23.20;99.90;;;;;;4865092;29;20586;-78
2022/07/12 10:50:44;;;;;;;2.15;1.90;;;23.40;99.90;;;;;;4851258;29;20189;-78
2022/07/12 10:53:40;;;;;;;4.25;1.80;;;23.50;99.90;;;;;;4851532;29;20193;-78
2022/07/12 10:56:25;;;;;;;4.70;1.50;;;23.50;99.90;;;;;;4897816;29;20627;-78
2022/07/12 10:59:10;;;;;;;2.00;1.60;;;23.60;99.90;;;;;;4850635;29;20206;-78
2022/07/12 11:01:55;;;;;;;1.60;1.50;;;23.60;99.90;;;;;;4855616;29;20225;-78
2022/07/12 11:04:47;;;;;;;4.47;1.50;;;23.60;99.90;;;;;;4866568;29;20292;-78
2022/07/12 11:07:31;;;;;;;2.15;1.67;;;23.60;99.90;;;;;;4875836;29;20744;-79
2022/07/12 11:10:15;;;;;;;1.23;1.13;;;23.60;99.90;;;;;;4881528;29;20198;-78
2022/07/12 11:13:00;;;;;;;2.08;1.25;;;23.70;99.90;;;;;;4844525;29;20230;-78
2022/07/12 11:15:58;;;;;;;4.05;1.38;;;23.70;99.90;;;;;;4883773;29;20224;-78
2022/07/12 11:18:43;;;;;;;1.60;1.50;;;23.80;99.90;;;;;;4865347;29;20194;-78
2022/07/12 11:21:28;;;;;;;1.10;1.10;;;23.80;99.90;;;;;;4842356;29;20194;-78
2022/07/12 11:24:20;;;;;;;1.27;1.13;;;23.80;99.90;;;;;;4853084;29;20229;-78
2022/07/12 11:27:05;;;;;;;1.35;1.05;;;23.90;99.90;;;;;;4891248;29;20684;-81
2022/07/12 11:29:58;;;;;;;1.70;0.90;;;24.00;99.90;;;;;;4849830;29;20205;-80
2022/07/12 11:32:43;;;;;;;1.33;1.10;;;24.10;99.90;;;;;;4859713;29;20257;-80
2022/07/12 11:35:28;;;;;;;0.80;0.80;;;24.20;99.90;;;;;;4885591;29;20251;-80
2022/07/12 11:38:13;;;;;;;0.73;0.70;;;24.30;99.90;;;;;;4862939;29;20189;-79
2022/07/12 11:40:59;;;;;;;1.08;1.00;;;24.40;99.90;;;;;;4871344;29;20277;-79
2022/07/12 11:43:43;;;;;;;1.33;1.23;;;24.50;99.90;;;;;;4842666;29;20409;-79
2022/07/12 11:46:31;;;;;;;2.83;1.20;;;24.60;99.90;;;;;;4874961;29;20432;-79
2022/07/12 11:49:16;;;;;;;1.30;1.25;;;24.70;99.90;;;;;;4847585;29;20797;-79
2022/07/12 11:52:01;;;;;;;1.90;1.40;;;24.80;99.90;;;;;;4864719;29;20461;-79
2022/07/12 11:54:46;;;;;;;1.30;1.20;;;24.90;99.90;;;;;;4851680;29;20436;-80
2022/07/12 11:57:32;;;;;;;1.38;0.90;;;24.90;99.90;;;;;;4891225;29;20439;-79
2022/07/12 12:00:20;;;;;;;1.05;0.80;;;25.00;99.90;;;;;;4848216;29;20488;-80
2022/07/12 12:03:05;;;;;;;1.20;1.02;;;25.00;99.90;;;;;;4857072;29;20514;-79
2022/07/12 12:05:51;;;;;;;2.23;1.10;;;25.10;99.90;;;;;;4855870;29;20461;-79
2022/07/12 12:08:36;;;;;;;2.20;0.90;;;25.10;99.90;;;;;;4849569;29;20480;-78
2022/07/12 12:11:28;;;;;;;1.63;0.80;;;25.10;99.90;;;;;;4868083;29;20401;-77
2022/07/12 12:14:12;;;;;;;1.20;0.70;;;25.10;99.90;;;;;;4845678;29;20434;-79
2022/07/12 12:16:57;;;;;;;1.58;0.70;;;25.20;99.90;;;;;;4881451;29;20937;-78
2022/07/12 12:19:42;;;;;;;1.53;0.67;;;25.30;99.90;;;;;;4859243;29;20429;-78
2022/07/12 12:22:36;;;;;;;1.35;0.63;;;25.40;99.90;;;;;;4848579;29;20470;-78
2022/07/12 12:25:22;;;;;;;1.33;0.60;;;25.50;99.90;;;;;;4843546;29;20477;-78
2022/07/12 12:28:06;;;;;;;0.73;0.63;;;25.60;99.90;;;;;;4879505;29;20480;-78
2022/07/12 12:30:55;;;;;;;1.17;0.73;;;25.60;99.90;;;;;;4879288;29;20406;-77
2022/07/12 12:33:48;;;;;;;0.60;0.50;;;25.70;99.90;;;;;;4888531;29;20467;-78
2022/07/12 12:36:36;;;;;;;1.02;0.50;;;25.60;99.90;;;;;;4843345;29;20422;-79
2022/07/12 12:39:30;;;;;;;0.50;0.38;;;25.60;99.90;;;;;;4849247;29;20449;-78
2022/07/12 12:42:26;;;;;;;1.55;0.30;;;25.60;99.90;;;;;;4868790;29;20434;-78
2022/07/12 12:45:48;;;;;;;0.65;0.47;;;25.70;99.90;;;;;;4863790;29;20418;-78
2022/07/12 12:48:34;;;;;;;0.80;0.50;;;25.70;99.90;;;;;;4866170;29;20537;-78
2022/07/12 12:51:18;;;;;;;0.77;0.50;;;25.90;99.90;;;;;;4885825;29;20397;-79
2022/07/12 12:54:02;;;;;;;2.40;0.55;;;26.00;99.90;;;;;;4896570;29;20921;-79
2022/07/12 12:56:46;;;;;;;0.50;0.50;;;26.00;99.90;;;;;;4860265;29;20453;-79
2022/07/12 12:59:31;;;;;;;2.30;0.50;;;26.00;99.90;;;;;;4859739;29;20445;-79
2022/07/12 13:02:15;;;;;;;2.28;0.57;;;26.00;99.90;;;;;;4873944;29;20513;-83
2022/07/12 13:05:00;;;;;;;1.05;0.50;;;26.10;99.90;;;;;;4855052;29;20418;-80
2022/07/12 13:07:44;;;;;;;1.40;0.55;;;26.20;99.90;;;;;;4887980;29;20471;-79
2022/07/12 13:10:29;;;;;;;2.38;0.50;;;26.20;99.90;;;;;;4852054;29;20449;-81
2022/07/12 13:13:14;;;;;;;0.80;0.50;;;26.20;99.90;;;;;;4848038;29;20408;-84
2022/07/12 13:15:58;;;;;;;0.93;0.60;;;26.30;99.90;;;;;;4879820;29;20482;-82
2022/07/12 13:18:42;;;;;;;1.90;0.40;;;26.40;99.90;;;;;;4865036;29;20425;-80
2022/07/12 13:21:26;;;;;;;2.40;0.50;;;26.50;99.90;;;;;;4852661;29;20453;-81
2022/07/12 13:24:10;;;;;;;0.90;0.40;;;26.50;99.90;;;;;;4866064;29;20511;-78
2022/07/12 13:26:55;;;;;;;0.70;0.50;;;26.50;99.90;;;;;;4830176;29;20431;-78
2022/07/12 13:29:39;;;;;;;0.68;0.50;;;26.50;99.90;;;;;;4824157;29;20509;-78
2022/07/12 13:32:24;;;;;;;2.85;0.57;;;26.50;99.90;;;;;;4839316;29;20419;-78
2022/07/12 13:35:10;;;;;;;0.40;0.40;;;26.50;99.90;;;;;;4847515;29;20474;-78
2022/07/12 13:38:37;;;;;;;1.10;0.50;;;26.50;99.90;;;;;;4831419;29;20427;-77
2022/07/12 13:41:22;;;;;;;2.50;0.50;;;26.60;99.90;;;;;;4872983;29;20429;-77
2022/07/12 13:44:06;;;;;;;0.80;0.47;;;26.60;99.90;;;;;;4842285;29;20624;-78
2022/07/12 13:46:50;;;;;;;0.50;0.30;;;26.70;99.90;;;;;;4845173;29;20484;-79
2022/07/12 13:49:34;;;;;;;0.75;0.30;;;26.70;99.90;;;;;;4830329;29;20982;-78
2022/07/12 13:52:19;;;;;;;0.43;0.43;;;26.80;99.90;;;;;;4831206;29;20488;-77
2022/07/12 13:55:04;;;;;;;0.73;0.40;;;26.70;99.90;;;;;;4833819;29;20432;-78
2022/07/12 13:57:48;;;;;;;1.10;0.60;;;26.80;99.90;;;;;;4877388;29;20426;-79
2022/07/12 14:00:32;;;;;;;0.55;0.40;;;26.80;99.90;;;;;;4837876;29;20414;-79
2022/07/12 14:03:17;;;;;;;1.08;0.50;;;26.90;99.90;;;;;;4833048;29;20423;-78
2022/07/12 14:06:01;;;;;;;0.95;0.30;;;26.80;99.90;;;;;;4844289;29;20447;-79
2022/07/12 14:08:46;;;;;;;0.50;0.50;;;26.80;99.90;;;;;;4846972;29;20431;-78
2022/07/12 14:11:30;;;;;;;2.17;0.45;;;26.80;99.90;;;;;;4831077;29;20503;-78
2022/07/12 14:15:13;;;;;;;0.50;0.40;;;26.80;99.90;;;;;;4840344;29;20501;-80
2022/07/12 14:17:23;;;;;;;0.32;0.30;;;26.90;99.90;;;;;;4833169;29;20403;-80
2022/07/12 14:20:08;;;;;;;0.50;0.32;;;26.90;99.90;;;;;;4823777;29;20419;-78
2022/07/12 14:22:56;;;;;;;0.55;0.40;;;26.90;99.90;;;;;;4821660;29;20418;-78
2022/07/12 14:25:40;;;;;;;1.17;0.50;;;27.00;99.90;;;;;;4844346;29;20426;-78
2022/07/12 14:28:26;;;;;;;1.30;0.60;;;27.10;99.90;;;;;;4846586;29;20471;-77